sensor_id;sensor_type;location;lat;lon;timestamp;pressure;altitude;pressure_sealevel;temperature;humidity
8069;BME280;4077;43.702;24.896;2023-05-23T00:01:34;99255.84;;;13.63;100.00
8069;BME280;4077;43.702;24.896;2023-05-23T00:04:03;99207.63;;;13.21;100.00
8069;BME280;4077;43.702;24.896;2023-05-23T00:06:29;99255.09;;;13.41;100.00
8069;BME280;4077;43.702;24.896;2023-05-23T00:08:55;99257.69;;;13.41;100.00
8069;BME280;4077;43.702;24.896;2023-05-23T00:11:21;99254.25;;;13.36;100.00
8069;BME280;4077;43.702;24.896;2023-05-23T00:13:53;99259.41;;;13.36;100.00
8069;BME280;4077;43.702;24.896;2023-05-23T00:16:19;99260.31;;;13.33;100.00
8069;BME280;4077;43.702;24.896;2023-05-23T00:18:45;99249.06;;;13.30;100.00
8069;BME280;4077;43.702;24.896;2023-05-23T00:21:11;99254.25;;;13.33;100.00
8069;BME280;4077;43.702;24.896;2023-05-23T00:23:38;99246.47;;;13.30;100.00
8069;BME280;4077;43.702;24.896;2023-05-23T00:26:07;99254.25;;;13.30;100.00
8069;BME280;4077;43.702;24.896;2023-05-23T00:28:32;99224.03;;;13.10;100.00
8069;BME280;4077;43.702;24.896;2023-05-23T00:30:58;99223.19;;;13.11;100.00
8069;BME280;4077;43.702;24.896;2023-05-23T00:33:23;99252.53;;;13.32;100.00
8069;BME280;4077;43.702;24.896;2023-05-23T00:35:49;99237.00;;;13.23;100.00
8069;BME280;4077;43.702;24.896;2023-05-23T00:38:15;99249.91;;;13.36;100.00
8069;BME280;4077;43.702;24.896;2023-05-23T00:40:41;99253.41;;;13.28;100.00
8069;BME280;4077;43.702;24.896;2023-05-23T00:43:06;99250.84;;;13.22;100.00
8069;BME280;4077;43.702;24.896;2023-05-23T00:45:34;99235.28;;;13.12;100.00
8069;BME280;4077;43.702;24.896;2023-05-23T00:48:02;99236.16;;;13.11;100.00
8069;BME280;4077;43.702;24.896;2023-05-23T00:50:28;99244.78;;;13.13;100.00
8069;BME280;4077;43.702;24.896;2023-05-23T00:52:55;99245.63;;;13.14;100.00
8069;BME280;4077;43.702;24.896;2023-05-23T00:55:23;99228.41;;;13.05;100.00
8069;BME280;4077;43.702;24.896;2023-05-23T00:57:49;99222.31;;;13.09;100.00
8069;BME280;4077;43.702;24.896;2023-05-23T01:00:16;99224.94;;;13.06;100.00
8069;BME280;4077;43.702;24.896;2023-05-23T01:02:46;99233.53;;;13.14;100.00
8069;BME280;4077;43.702;24.896;2023-05-23T01:05:15;99216.31;;;12.98;100.00
8069;BME280;4077;43.702;24.896;2023-05-23T01:07:45;99229.25;;;13.03;100.00
8069;BME280;4077;43.702;24.896;2023-05-23T01:10:12;99212.88;;;12.90;100.00
8069;BME280;4077;43.702;24.896;2023-05-23T01:13:01;99218.03;;;13.05;100.00
8069;BME280;4077;43.702;24.896;2023-05-23T01:15:41;99211.13;;;13.01;100.00
8069;BME280;4077;43.702;24.896;2023-05-23T01:18:11;99217.19;;;13.05;100.00
8069;BME280;4077;43.702;24.896;2023-05-23T01:20:54;99218.91;;;13.00;100.00
8069;BME280;4077;43.702;24.896;2023-05-23T01:26:20;99228.41;;;12.99;100.00
8069;BME280;4077;43.702;24.896;2023-05-23T01:28:52;99223.25;;;12.82;100.00
8069;BME280;4077;43.702;24.896;2023-05-23T01:31:20;99225.84;;;12.76;100.00
8069;BME280;4077;43.702;24.896;2023-05-23T01:33:47;99228.47;;;12.72;100.00
8069;BME280;4077;43.702;24.896;2023-05-23T01:36:14;99235.38;;;12.67;100.00
8069;BME280;4077;43.702;24.896;2023-05-23T01:38:40;99218.13;;;12.50;100.00
8069;BME280;4077;43.702;24.896;2023-05-23T01:41:06;99217.28;;;12.50;100.00
8069;BME280;4077;43.702;24.896;2023-05-23T01:43:31;99218.97;;;12.54;100.00
8069;BME280;4077;43.702;24.896;2023-05-23T01:45:57;99233.63;;;12.63;100.00
8069;BME280;4077;43.702;24.896;2023-05-23T01:48:25;99219.84;;;12.51;100.00
8069;BME280;4077;43.702;24.896;2023-05-23T01:50:52;99223.31;;;12.50;100.00
8069;BME280;4077;43.702;24.896;2023-05-23T01:53:20;99224.19;;;12.51;100.00
8069;BME280;4077;43.702;24.896;2023-05-23T01:55:46;99222.44;;;12.56;100.00
8069;BME280;4077;43.702;24.896;2023-05-23T01:58:12;99237.97;;;12.67;100.00
8069;BME280;4077;43.702;24.896;2023-05-23T02:00:38;99231.94;;;12.49;100.00
8069;BME280;4077;43.702;24.896;2023-05-23T02:03:04;99219.00;;;12.52;100.00
8069;BME280;4077;43.702;24.896;2023-05-23T02:05:30;99229.34;;;12.52;100.00
8069;BME280;4077;43.702;24.896;2023-05-23T02:07:55;99232.81;;;12.51;100.00
8069;BME280;4077;43.702;24.896;2023-05-23T02:10:21;99244.03;;;12.56;100.00
8069;BME280;4077;43.702;24.896;2023-05-23T02:12:47;99243.16;;;12.53;100.00
8069;BME280;4077;43.702;24.896;2023-05-23T02:15:12;99250.03;;;12.62;100.00
8069;BME280;4077;43.702;24.896;2023-05-23T02:17:38;99250.88;;;12.91;100.00
8069;BME280;4077;43.702;24.896;2023-05-23T02:20:04;99238.84;;;12.53;100.00
8069;BME280;4077;43.702;24.896;2023-05-23T02:22:30;99237.09;;;12.52;100.00
8069;BME280;4077;43.702;24.896;2023-05-23T02:24:56;99227.59;;;12.68;100.00
8069;BME280;4077;43.702;24.896;2023-05-23T02:27:22;99228.47;;;12.59;100.00
8069;BME280;4077;43.702;24.896;2023-05-23T02:29:47;99260.41;;;12.68;100.00
8069;BME280;4077;43.702;24.896;2023-05-23T02:32:13;99263.84;;;12.62;100.00
8069;BME280;4077;43.702;24.896;2023-05-23T02:34:40;99255.25;;;12.36;100.00
8069;BME280;4077;43.702;24.896;2023-05-23T02:37:05;99227.63;;;12.16;100.00
8069;BME280;4077;43.702;24.896;2023-05-23T02:39:31;99259.53;;;12.26;100.00
8069;BME280;4077;43.702;24.896;2023-05-23T02:41:56;99263.00;;;12.25;100.00
8069;BME280;4077;43.702;24.896;2023-05-23T02:44:22;99256.06;;;12.12;100.00
8069;BME280;4077;43.702;24.896;2023-05-23T02:46:47;99252.63;;;12.03;100.00
8069;BME280;4077;43.702;24.896;2023-05-23T02:49:12;99274.19;;;12.10;100.00
8069;BME280;4077;43.702;24.896;2023-05-23T02:51:38;99256.91;;;11.92;100.00
8069;BME280;4077;43.702;24.896;2023-05-23T02:54:03;99252.59;;;11.91;100.00
8069;BME280;4077;43.702;24.896;2023-05-23T02:56:29;99263.81;;;12.02;100.00
8069;BME280;4077;43.702;24.896;2023-05-23T02:58:55;99273.31;;;12.03;100.00
8069;BME280;4077;43.702;24.896;2023-05-23T03:01:20;99271.59;;;12.02;100.00
8069;BME280;4077;43.702;24.896;2023-05-23T03:03:46;99254.31;;;11.89;100.00
8069;BME280;4077;43.702;24.896;2023-05-23T03:06:11;99269.84;;;11.98;100.00
8069;BME280;4077;43.702;24.896;2023-05-23T03:08:42;99268.97;;;11.98;100.00
8069;BME280;4077;43.702;24.896;2023-05-23T03:11:07;99261.19;;;11.84;100.00
8069;BME280;4077;43.702;24.896;2023-05-23T03:13:34;99269.84;;;11.89;100.00
8069;BME280;4077;43.702;24.896;2023-05-23T03:16:00;99262.91;;;11.82;100.00
8069;BME280;4077;43.702;24.896;2023-05-23T03:18:25;99285.34;;;11.92;100.00
8069;BME280;4077;43.702;24.896;2023-05-23T03:20:51;99282.75;;;11.89;100.00
8069;BME280;4077;43.702;24.896;2023-05-23T03:23:17;99280.19;;;11.98;100.00
8069;BME280;4077;43.702;24.896;2023-05-23T03:25:43;99275.03;;;11.95;100.00
8069;BME280;4077;43.702;24.896;2023-05-23T03:28:08;99283.66;;;12.03;100.00
8069;BME280;4077;43.702;24.896;2023-05-23T03:30:34;99274.16;;;12.05;100.00
8069;BME280;4077;43.702;24.896;2023-05-23T03:32:59;99267.22;;;11.94;100.00
8069;BME280;4077;43.702;24.896;2023-05-23T03:35:26;99273.31;;;11.94;100.00
8069;BME280;4077;43.702;24.896;2023-05-23T03:37:51;99300.06;;;12.09;100.00
8069;BME280;4077;43.702;24.896;2023-05-23T03:40:16;99293.16;;;12.12;100.00
8069;BME280;4077;43.702;24.896;2023-05-23T03:42:42;99287.97;;;12.04;100.00
8069;BME280;4077;43.702;24.896;2023-05-23T03:45:07;99285.44;;;12.23;100.00
8069;BME280;4077;43.702;24.896;2023-05-23T03:47:33;99290.56;;;12.14;100.00
8069;BME280;4077;43.702;24.896;2023-05-23T03:49:58;99274.19;;;12.21;100.00
8069;BME280;4077;43.702;24.896;2023-05-23T03:52:24;99273.34;;;12.31;100.00
8069;BME280;4077;43.702;24.896;2023-05-23T03:54:49;99245.72;;;12.18;100.00
8069;BME280;4077;43.702;24.896;2023-05-23T03:57:15;99273.34;;;12.46;100.00
8069;BME280;4077;43.702;24.896;2023-05-23T03:59:40;99287.16;;;12.54;100.00
8069;BME280;4077;43.702;24.896;2023-05-23T04:02:06;99276.81;;;12.56;100.00
8069;BME280;4077;43.702;24.896;2023-05-23T04:04:31;99272.47;;;12.61;100.00
8069;BME280;4077;43.702;24.896;2023-05-23T04:06:58;99276.81;;;12.71;100.00
8069;BME280;4077;43.702;24.896;2023-05-23T04:09:23;99288.00;;;13.01;100.00
8069;BME280;4077;43.702;24.896;2023-05-23T04:11:49;99294.03;;;13.18;100.00
8069;BME280;4077;43.702;24.896;2023-05-23T04:14:14;99293.16;;;13.28;100.00
8069;BME280;4077;43.702;24.896;2023-05-23T04:16:40;99300.06;;;13.22;100.00
8069;BME280;4077;43.702;24.896;2023-05-23T04:19:07;99287.13;;;13.22;100.00
8069;BME280;4077;43.702;24.896;2023-05-23T04:21:35;99298.31;;;13.36;100.00
8069;BME280;4077;43.702;24.896;2023-05-23T04:24:00;99299.09;;;13.52;100.00
8069;BME280;4077;43.702;24.896;2023-05-23T04:26:27;99302.56;;;13.61;100.00
8069;BME280;4077;43.702;24.896;2023-05-23T04:28:53;99286.97;;;13.64;100.00
8069;BME280;4077;43.702;24.896;2023-05-23T04:31:19;99310.19;;;13.92;100.00
8069;BME280;4077;43.702;24.896;2023-05-23T04:33:46;99313.59;;;14.08;100.00
8069;BME280;4077;43.702;24.896;2023-05-23T04:36:12;99320.50;;;14.04;100.00
8069;BME280;4077;43.702;24.896;2023-05-23T04:38:37;99324.78;;;14.16;100.00
8069;BME280;4077;43.702;24.896;2023-05-23T04:41:05;99316.09;;;14.21;100.00
8069;BME280;4077;43.702;24.896;2023-05-23T04:43:31;99306.53;;;14.27;100.00
8069;BME280;4077;43.702;24.896;2023-05-23T04:45:58;99319.41;;;14.48;100.00
8069;BME280;4077;43.702;24.896;2023-05-23T04:48:24;99315.00;;;14.58;100.00
8069;BME280;4077;43.702;24.896;2023-05-23T04:50:51;99303.69;;;14.66;100.00
8069;BME280;4077;43.702;24.896;2023-05-23T04:53:17;99294.91;;;14.83;100.00
8069;BME280;4077;43.702;24.896;2023-05-23T04:55:43;99280.94;;;14.93;100.00
8069;BME280;4077;43.702;24.896;2023-05-23T04:58:08;99298.03;;;15.15;100.00
8069;BME280;4077;43.702;24.896;2023-05-23T05:00:34;99303.22;;;15.18;100.00
8069;BME280;4077;43.702;24.896;2023-05-23T05:03:00;99322.28;;;15.17;100.00
8069;BME280;4077;43.702;24.896;2023-05-23T05:05:26;99317.16;;;15.11;100.00
8069;BME280;4077;43.702;24.896;2023-05-23T05:07:51;99311.97;;;15.08;100.00
8069;BME280;4077;43.702;24.896;2023-05-23T05:10:17;99284.19;;;15.13;100.00
8069;BME280;4077;43.702;24.896;2023-05-23T05:12:46;99309.69;;;15.62;100.00
8069;BME280;4077;43.702;24.896;2023-05-23T05:15:15;99302.06;;;15.45;100.00
8069;BME280;4077;43.702;24.896;2023-05-23T05:17:43;99314.75;;;15.74;100.00
8069;BME280;4077;43.702;24.896;2023-05-23T05:20:09;99324.97;;;15.90;100.00
8069;BME280;4077;43.702;24.896;2023-05-23T05:22:37;99319.13;;;15.71;100.00
8069;BME280;4077;43.702;24.896;2023-05-23T05:25:07;99326.88;;;15.75;100.00
8069;BME280;4077;43.702;24.896;2023-05-23T05:27:33;99326.72;;;15.88;100.00
8069;BME280;4077;43.702;24.896;2023-05-23T05:29:58;99326.06;;;15.72;100.00
8069;BME280;4077;43.702;24.896;2023-05-23T05:32:29;99303.69;;;15.54;100.00
8069;BME280;4077;43.702;24.896;2023-05-23T05:35:01;99332.88;;;15.80;100.00
8069;BME280;4077;43.702;24.896;2023-05-23T05:37:27;99341.38;;;15.95;100.00
8069;BME280;4077;43.702;24.896;2023-05-23T05:39:53;99347.41;;;16.00;100.00
8069;BME280;4077;43.702;24.896;2023-05-23T05:42:19;99345.25;;;16.29;100.00
8069;BME280;4077;43.702;24.896;2023-05-23T05:44:46;99344.22;;;16.39;100.00
8069;BME280;4077;43.702;24.896;2023-05-23T05:47:11;99343.13;;;16.56;100.00
8069;BME280;4077;43.702;24.896;2023-05-23T05:49:37;99358.28;;;16.89;100.00
8069;BME280;4077;43.702;24.896;2023-05-23T05:52:02;99350.63;;;16.79;100.00
8069;BME280;4077;43.702;24.896;2023-05-23T05:54:28;99354.88;;;16.84;100.00
8069;BME280;4077;43.702;24.896;2023-05-23T05:56:53;99361.31;;;17.16;100.00
8069;BME280;4077;43.702;24.896;2023-05-23T05:59:19;99366.75;;;17.04;100.00
8069;BME280;4077;43.702;24.896;2023-05-23T06:01:45;99358.13;;;16.99;100.00
8069;BME280;4077;43.702;24.896;2023-05-23T06:04:10;99364.91;;;17.09;100.00
8069;BME280;4077;43.702;24.896;2023-05-23T06:06:35;99366.25;;;17.31;100.00
8069;BME280;4077;43.702;24.896;2023-05-23T06:09:01;99366.53;;;17.64;100.00
8069;BME280;4077;43.702;24.896;2023-05-23T06:11:26;99365.41;;;17.79;100.00
8069;BME280;4077;43.702;24.896;2023-05-23T06:13:52;99366.13;;;17.85;100.00
8069;BME280;4077;43.702;24.896;2023-05-23T06:16:17;99359.38;;;17.75;100.00
8069;BME280;4077;43.702;24.896;2023-05-23T06:18:43;99358.47;;;17.76;100.00
8069;BME280;4077;43.702;24.896;2023-05-23T06:21:09;99366.50;;;18.09;100.00
8069;BME280;4077;43.702;24.896;2023-05-23T06:23:35;99361.28;;;18.09;100.00
8069;BME280;4077;43.702;24.896;2023-05-23T06:26:00;99365.50;;;18.54;100.00
8069;BME280;4077;43.702;24.896;2023-05-23T06:28:26;99367.13;;;18.58;100.00
8069;BME280;4077;43.702;24.896;2023-05-23T06:30:51;99369.06;;;18.50;100.00
8069;BME280;4077;43.702;24.896;2023-05-23T06:33:17;99359.47;;;18.51;100.00
8069;BME280;4077;43.702;24.896;2023-05-23T06:35:42;99367.69;;;18.74;100.00
8069;BME280;4077;43.702;24.896;2023-05-23T06:38:08;99377.63;;;18.96;100.00
8069;BME280;4077;43.702;24.896;2023-05-23T06:40:33;99373.53;;;19.20;100.00
8069;BME280;4077;43.702;24.896;2023-05-23T06:42:59;99362.56;;;19.39;100.00
8069;BME280;4077;43.702;24.896;2023-05-23T06:45:24;99374.97;;;19.65;100.00
8069;BME280;4077;43.702;24.896;2023-05-23T06:47:50;99384.25;;;20.08;100.00
8069;BME280;4077;43.702;24.896;2023-05-23T06:50:16;99385.47;;;20.26;100.00
8069;BME280;4077;43.702;24.896;2023-05-23T06:52:44;99383.59;;;20.30;100.00
8069;BME280;4077;43.702;24.896;2023-05-23T06:55:11;99385.44;;;20.28;100.00
8069;BME280;4077;43.702;24.896;2023-05-23T06:57:39;99372.84;;;20.09;100.00
8069;BME280;4077;43.702;24.896;2023-05-23T07:00:05;99388.16;;;20.25;100.00
8069;BME280;4077;43.702;24.896;2023-05-23T07:02:31;99374.16;;;20.24;100.00
8069;BME280;4077;43.702;24.896;2023-05-23T07:04:56;99388.16;;;20.54;100.00
8069;BME280;4077;43.702;24.896;2023-05-23T07:07:22;99388.81;;;20.89;100.00
8069;BME280;4077;43.702;24.896;2023-05-23T07:09:47;99388.50;;;20.98;100.00
8069;BME280;4077;43.702;24.896;2023-05-23T07:12:13;99387.78;;;21.19;100.00
8069;BME280;4077;43.702;24.896;2023-05-23T07:14:38;99391.94;;;21.26;100.00
8069;BME280;4077;43.702;24.896;2023-05-23T07:17:04;99377.72;;;21.34;100.00
8069;BME280;4077;43.702;24.896;2023-05-23T07:19:30;99384.53;;;21.39;100.00
8069;BME280;4077;43.702;24.896;2023-05-23T07:21:55;99363.00;;;21.29;100.00
8069;BME280;4077;43.702;24.896;2023-05-23T07:24:21;99372.09;;;21.44;100.00
8069;BME280;4077;43.702;24.896;2023-05-23T07:26:46;99378.00;;;21.51;100.00
8069;BME280;4077;43.702;24.896;2023-05-23T07:29:12;99373.94;;;21.42;98.73
8069;BME280;4077;43.702;24.896;2023-05-23T07:31:38;99375.47;;;21.48;98.82
8069;BME280;4077;43.702;24.896;2023-05-23T07:34:03;99379.91;;;21.46;94.22
8069;BME280;4077;43.702;24.896;2023-05-23T07:36:29;99368.34;;;21.51;98.57
8069;BME280;4077;43.702;24.896;2023-05-23T07:38:58;99357.69;;;21.56;95.87
8069;BME280;4077;43.702;24.896;2023-05-23T07:41:23;99336.19;;;21.45;95.10
8069;BME280;4077;43.702;24.896;2023-05-23T07:43:49;99374.47;;;21.75;90.77
8069;BME280;4077;43.702;24.896;2023-05-23T07:46:15;99370.06;;;21.77;88.65
8069;BME280;4077;43.702;24.896;2023-05-23T07:48:40;99379.56;;;22.05;89.42
8069;BME280;4077;43.702;24.896;2023-05-23T07:51:06;99376.34;;;22.44;91.22
8069;BME280;4077;43.702;24.896;2023-05-23T07:53:31;99384.06;;;22.48;87.75
8069;BME280;4077;43.702;24.896;2023-05-23T07:55:57;99381.94;;;22.58;86.75
8069;BME280;4077;43.702;24.896;2023-05-23T07:58:22;99381.81;;;22.61;86.15
8069;BME280;4077;43.702;24.896;2023-05-23T08:00:47;99369.03;;;22.52;86.81
8069;BME280;4077;43.702;24.896;2023-05-23T08:03:14;99378.25;;;22.62;85.18
8069;BME280;4077;43.702;24.896;2023-05-23T08:05:41;99369.88;;;22.74;85.91
8069;BME280;4077;43.702;24.896;2023-05-23T08:08:06;99369.63;;;22.80;84.29
8069;BME280;4077;43.702;24.896;2023-05-23T08:10:32;99364.69;;;22.95;84.00
8069;BME280;4077;43.702;24.896;2023-05-23T08:12:58;99359.34;;;22.74;85.64
8069;BME280;4077;43.702;24.896;2023-05-23T08:15:25;99363.16;;;22.67;81.41
8069;BME280;4077;43.702;24.896;2023-05-23T08:17:50;99343.25;;;22.60;84.42
8069;BME280;4077;43.702;24.896;2023-05-23T08:20:20;99365.09;;;22.84;81.94
8069;BME280;4077;43.702;24.896;2023-05-23T08:22:46;99368.13;;;22.97;80.70
8069;BME280;4077;43.702;24.896;2023-05-23T08:25:11;99366.56;;;23.13;80.89
8069;BME280;4077;43.702;24.896;2023-05-23T08:27:37;99363.94;;;23.13;76.31
8069;BME280;4077;43.702;24.896;2023-05-23T08:30:03;99343.66;;;23.15;79.03
8069;BME280;4077;43.702;24.896;2023-05-23T08:32:29;99371.63;;;23.38;72.86
8069;BME280;4077;43.702;24.896;2023-05-23T08:34:54;99359.22;;;23.41;71.40
8069;BME280;4077;43.702;24.896;2023-05-23T08:37:19;99360.50;;;23.52;71.71
8069;BME280;4077;43.702;24.896;2023-05-23T08:39:45;99364.09;;;23.71;70.82
8069;BME280;4077;43.702;24.896;2023-05-23T08:42:10;99365.78;;;23.72;67.63
8069;BME280;4077;43.702;24.896;2023-05-23T08:44:36;99363.09;;;23.73;66.54
8069;BME280;4077;43.702;24.896;2023-05-23T08:47:02;99368.31;;;23.75;63.14
8069;BME280;4077;43.702;24.896;2023-05-23T08:49:32;99367.09;;;23.82;61.72
8069;BME280;4077;43.702;24.896;2023-05-23T08:52:01;99365.38;;;23.81;59.94
8069;BME280;4077;43.702;24.896;2023-05-23T08:54:28;99363.31;;;23.69;60.51
8069;BME280;4077;43.702;24.896;2023-05-23T08:56:54;99362.53;;;23.86;59.57
8069;BME280;4077;43.702;24.896;2023-05-23T08:59:20;99370.25;;;23.90;56.16
8069;BME280;4077;43.702;24.896;2023-05-23T09:01:47;99370.03;;;23.95;57.26
8069;BME280;4077;43.702;24.896;2023-05-23T09:04:12;99368.84;;;24.02;53.48
8069;BME280;4077;43.702;24.896;2023-05-23T09:06:38;99371.06;;;24.11;53.09
8069;BME280;4077;43.702;24.896;2023-05-23T09:09:04;99363.84;;;24.15;51.86
8069;BME280;4077;43.702;24.896;2023-05-23T09:11:29;99375.16;;;24.37;50.40
8069;BME280;4077;43.702;24.896;2023-05-23T09:13:58;99373.59;;;24.33;49.52
8069;BME280;4077;43.702;24.896;2023-05-23T09:16:31;99368.03;;;24.39;49.80
8069;BME280;4077;43.702;24.896;2023-05-23T09:18:56;99370.78;;;24.36;51.01
8069;BME280;4077;43.702;24.896;2023-05-23T09:21:23;99364.84;;;24.69;51.86
8069;BME280;4077;43.702;24.896;2023-05-23T09:23:49;99365.75;;;24.87;51.91
8069;BME280;4077;43.702;24.896;2023-05-23T09:26:14;99357.34;;;24.96;52.12
8069;BME280;4077;43.702;24.896;2023-05-23T09:28:42;99345.97;;;25.30;52.06
8069;BME280;4077;43.702;24.896;2023-05-23T09:31:09;99365.50;;;25.95;51.81
8069;BME280;4077;43.702;24.896;2023-05-23T09:33:47;99384.75;;;26.93;49.63
8069;BME280;4077;43.702;24.896;2023-05-23T09:36:12;99384.00;;;27.82;48.49
8069;BME280;4077;43.702;24.896;2023-05-23T09:38:39;99372.28;;;28.27;47.55
8069;BME280;4077;43.702;24.896;2023-05-23T09:41:05;99407.03;;;29.33;45.66
8069;BME280;4077;43.702;24.896;2023-05-23T09:43:30;99386.31;;;29.38;44.42
8069;BME280;4077;43.702;24.896;2023-05-23T09:46:09;99396.34;;;28.67;44.94
8069;BME280;4077;43.702;24.896;2023-05-23T09:48:36;99372.22;;;27.86;46.61
8069;BME280;4077;43.702;24.896;2023-05-23T09:51:09;99352.72;;;26.98;48.62
8069;BME280;4077;43.702;24.896;2023-05-23T09:53:34;99342.69;;;26.41;50.64
8069;BME280;4077;43.702;24.896;2023-05-23T09:56:02;99343.50;;;26.10;52.16
8069;BME280;4077;43.702;24.896;2023-05-23T09:58:28;99339.44;;;25.54;53.18
8069;BME280;4077;43.702;24.896;2023-05-23T10:00:59;99333.84;;;25.43;54.80
8069;BME280;4077;43.702;24.896;2023-05-23T10:03:36;99345.97;;;25.30;54.91
8069;BME280;4077;43.702;24.896;2023-05-23T10:06:07;99332.03;;;25.44;55.29
8069;BME280;4077;43.702;24.896;2023-05-23T10:08:42;99327.94;;;25.38;54.59
8069;BME280;4077;43.702;24.896;2023-05-23T10:13:48;99337.44;;;25.07;54.95
8069;BME280;4077;43.702;24.896;2023-05-23T10:19:09;99320.81;;;25.23;55.10
8069;BME280;4077;43.702;24.896;2023-05-23T10:21:43;99321.59;;;25.07;56.46
8069;BME280;4077;43.702;24.896;2023-05-23T10:24:13;99325.75;;;25.12;56.84
8069;BME280;4077;43.702;24.896;2023-05-23T10:26:39;99319.03;;;25.06;57.57
8069;BME280;4077;43.702;24.896;2023-05-23T10:29:05;99316.81;;;25.31;56.62
8069;BME280;4077;43.702;24.896;2023-05-23T10:31:32;99317.22;;;25.41;55.60
8069;BME280;4077;43.702;24.896;2023-05-23T10:37:04;99317.22;;;25.41;55.76
8069;BME280;4077;43.702;24.896;2023-05-23T10:39:38;99316.09;;;25.45;55.91
8069;BME280;4077;43.702;24.896;2023-05-23T10:42:16;99305.56;;;25.28;55.84
8069;BME280;4077;43.702;24.896;2023-05-23T10:44:42;99308.53;;;25.22;56.56
8069;BME280;4077;43.702;24.896;2023-05-23T10:47:07;99311.72;;;25.28;57.47
8069;BME280;4077;43.702;24.896;2023-05-23T10:49:42;99310.66;;;25.48;56.66
8069;BME280;4077;43.702;24.896;2023-05-23T10:52:10;99309.38;;;25.40;57.09
8069;BME280;4077;43.702;24.896;2023-05-23T10:54:44;99316.22;;;25.59;56.54
8069;BME280;4077;43.702;24.896;2023-05-23T10:57:14;99314.63;;;25.74;56.80
8069;BME280;4077;43.702;24.896;2023-05-23T10:59:41;99310.63;;;25.65;55.77
8069;BME280;4077;43.702;24.896;2023-05-23T11:02:18;99300.03;;;25.65;56.07
8069;BME280;4077;43.702;24.896;2023-05-23T11:04:43;99294.50;;;25.54;56.53
8069;BME280;4077;43.702;24.896;2023-05-23T11:07:41;99293.69;;;25.52;55.33
8069;BME280;4077;43.702;24.896;2023-05-23T11:10:11;99279.50;;;25.37;56.46
8069;BME280;4077;43.702;24.896;2023-05-23T11:12:42;99290.28;;;25.50;54.73
8069;BME280;4077;43.702;24.896;2023-05-23T11:15:18;99291.53;;;25.60;54.85
8069;BME280;4077;43.702;24.896;2023-05-23T11:17:55;99293.47;;;25.74;54.13
8069;BME280;4077;43.702;24.896;2023-05-23T11:20:23;99289.34;;;25.51;56.26
8069;BME280;4077;43.702;24.896;2023-05-23T11:23:00;99289.72;;;25.61;54.75
8069;BME280;4077;43.702;24.896;2023-05-23T11:25:43;99285.25;;;25.79;54.70
8069;BME280;4077;43.702;24.896;2023-05-23T11:28:13;99287.31;;;25.74;56.05
8069;BME280;4077;43.702;24.896;2023-05-23T11:30:40;99257.28;;;25.75;56.96
8069;BME280;4077;43.702;24.896;2023-05-23T11:33:07;99288.56;;;26.15;55.73
8069;BME280;4077;43.702;24.896;2023-05-23T11:35:46;99285.44;;;25.76;54.16
8069;BME280;4077;43.702;24.896;2023-05-23T11:38:13;99268.72;;;25.75;55.95
8069;BME280;4077;43.702;24.896;2023-05-23T11:40:41;99279.63;;;25.85;55.68
8069;BME280;4077;43.702;24.896;2023-05-23T11:43:12;99257.81;;;25.48;55.39
8069;BME280;4077;43.702;24.896;2023-05-23T11:45:38;99274.31;;;25.36;57.22
8069;BME280;4077;43.702;24.896;2023-05-23T11:48:16;99245.06;;;25.39;56.95
8069;BME280;4077;43.702;24.896;2023-05-23T11:53:11;99250.22;;;25.42;57.42
8069;BME280;4077;43.702;24.896;2023-05-23T11:55:39;99193.38;;;25.18;57.32
8069;BME280;4077;43.702;24.896;2023-05-23T11:58:06;99248.97;;;25.65;57.41
8069;BME280;4077;43.702;24.896;2023-05-23T12:00:31;99239.78;;;25.39;58.26
8069;BME280;4077;43.702;24.896;2023-05-23T12:02:56;99249.03;;;25.81;56.88
8069;BME280;4077;43.702;24.896;2023-05-23T12:05:22;99242.72;;;25.66;54.92
8069;BME280;4077;43.702;24.896;2023-05-23T12:07:48;99254.00;;;25.70;55.02
8069;BME280;4077;43.702;24.896;2023-05-23T12:10:14;99250.31;;;25.74;56.89
8069;BME280;4077;43.702;24.896;2023-05-23T12:12:46;99250.78;;;25.80;56.77
8069;BME280;4077;43.702;24.896;2023-05-23T12:15:12;99256.44;;;25.90;55.95
8069;BME280;4077;43.702;24.896;2023-05-23T12:17:38;99256.06;;;25.80;53.89
8069;BME280;4077;43.702;24.896;2023-05-23T12:20:05;99250.13;;;25.77;53.12
8069;BME280;4077;43.702;24.896;2023-05-23T12:22:30;99247.88;;;25.69;55.04
8069;BME280;4077;43.702;24.896;2023-05-23T12:24:56;99240.56;;;25.41;56.74
8069;BME280;4077;43.702;24.896;2023-05-23T12:27:34;99242.31;;;25.25;56.87
8069;BME280;4077;43.702;24.896;2023-05-23T12:30:11;99277.56;;;24.89;57.81
8069;BME280;4077;43.702;24.896;2023-05-23T12:32:41;99241.00;;;24.28;54.64
8069;BME280;4077;43.702;24.896;2023-05-23T12:35:08;99250.59;;;23.93;52.61
8069;BME280;4077;43.702;24.896;2023-05-23T12:37:38;99265.84;;;23.67;52.34
8069;BME280;4077;43.702;24.896;2023-05-23T12:40:16;99261.69;;;23.23;53.44
8069;BME280;4077;43.702;24.896;2023-05-23T12:42:51;99245.25;;;22.75;54.72
8069;BME280;4077;43.702;24.896;2023-05-23T12:45:30;99245.19;;;22.34;59.94
8069;BME280;4077;43.702;24.896;2023-05-23T12:47:55;99256.75;;;22.08;85.82
8069;BME280;4077;43.702;24.896;2023-05-23T12:50:21;99245.97;;;21.46;100.00
8069;BME280;4077;43.702;24.896;2023-05-23T12:52:47;99210.34;;;20.37;100.00
8069;BME280;4077;43.702;24.896;2023-05-23T12:55:12;99223.97;;;19.94;100.00
8069;BME280;4077;43.702;24.896;2023-05-23T12:57:38;99192.66;;;18.99;100.00
8069;BME280;4077;43.702;24.896;2023-05-23T13:00:04;99220.06;;;18.86;100.00
8069;BME280;4077;43.702;24.896;2023-05-23T13:02:30;99217.94;;;18.68;100.00
8069;BME280;4077;43.702;24.896;2023-05-23T13:04:56;99210.13;;;18.65;100.00
8069;BME280;4077;43.702;24.896;2023-05-23T13:07:22;99225.22;;;18.55;100.00
8069;BME280;4077;43.702;24.896;2023-05-23T13:09:47;99209.91;;;18.40;100.00
8069;BME280;4077;43.702;24.896;2023-05-23T13:12:13;99209.97;;;18.37;100.00
8069;BME280;4077;43.702;24.896;2023-05-23T13:14:40;99205.84;;;18.28;100.00
8069;BME280;4077;43.702;24.896;2023-05-23T13:17:05;99206.53;;;18.35;100.00
8069;BME280;4077;43.702;24.896;2023-05-23T13:19:31;99200.53;;;18.31;100.00